Strona główna
METAR-TAF:

METAR-TAF

Lotnisko :

Port lotniczy Moroni

Moroni, Komory

Szerokość geograficzna: 11-32S, Długość geograficzna: 043-16E, wysokość: 29 m

Aktualna obserwacja pogody

Raport powstał 7 godziny i 32 minut temu, godzina 18:00 UTC
Wiatr 2 kt z kierunków zmiennych
Temperatura 25°C
Wilgotność 74%
Ciśnienie 1017 hPa
Widzialność 10 km lub więcej
Mało chmury na wysokości 2000 ft

METAR: FMCH 251800Z VRB02KT 9999 FEW020 25/20 Q1017 NOSIG

czas: 04:32 (01:32 UTC)

Prognoza

Raport powstał 20 godziny i 32 minut temu, godzina 05:00 UTC
Prognoza ważna od 25 godzina 06 UTC do 26 godzina 12 UTC
Wiatr 10 kt od południowy zachód
Widzialność 10 km lub więcej
Mało chmury na wysokości 2000 ft
Stopniowe zmiany
od 25 godzina 16 UTC do 25 godzina 18 UTC
Wiatr 3 kt od wschód
Stopniowe zmiany
od 26 godzina 05 UTC do 26 godzina 07 UTC
Wiatr 10 kt od południowy zachód

TAF: FMCH 250500Z 2506/2612 22010KT 9999 FEW020 BECMG 2516/2518 09003KT BECMG 2605/2607 22010KT

Obserwacja i prognoza pogody dla ponad 4000 lotnisk (raport METAR i TAF).

Dostępne stacje oznaczono żółtymi i czerwonymi punktami na mapie.

Najedź kursorem aby zobaczyć nazwę stacji.

Kliknij aby zobaczyć obserwacje i prognozy pogody.

Aby zmienić mapę: kliknij na zielony przycisk z czarnym krzyżykiem, aby powiększyć; na zielony przycisk z myślnikiem, aby pomniejszyć; na zielone strzałki, aby przejść do map sąsiednich.


METAR-TAF: